Time;durP1;ratioP1;P1;durP2;ratioP2;P2;SDS_P1;SDS_P2;PMS_P1;PMS_P2;Temp;Humidity;BMP_temperature;BMP_pressure;BME280_temperature;BME280_humidity;BME280_pressure;Samples;Min_cycle;Max_cycle;Signal;HPM_P1;HPM_P2
2023/09/29 00:01:35;;;;;;;0.00;0.00;;;16.20;84.70;;;;;;5011529;28;20054;-70
2023/09/29 00:04:04;;;;;;;0.10;0.10;;;16.20;84.80;;;;;;5011624;28;20049;-70
2023/09/29 00:06:32;;;;;;;0.00;0.00;;;16.20;84.50;;;;;;5015372;28;20401;-70
2023/09/29 00:08:59;;;;;;;0.00;0.00;;;16.20;84.40;;;;;;5030592;28;20498;-70
2023/09/29 00:11:25;;;;;;;0.00;0.00;;;16.20;84.50;;;;;;5031050;28;20045;-70
2023/09/29 00:13:51;;;;;;;0.00;0.00;;;16.20;84.50;;;;;;5028638;28;20037;-70
2023/09/29 00:16:16;;;;;;;0.00;0.00;;;16.20;84.40;;;;;;5011255;28;20130;-70
2023/09/29 00:18:42;;;;;;;0.00;0.00;;;16.20;84.60;;;;;;5011060;28;20133;-70
2023/09/29 00:21:08;;;;;;;0.00;0.00;;;16.20;84.50;;;;;;5027665;28;20046;-70
2023/09/29 00:23:35;;;;;;;0.00;0.00;;;16.20;84.50;;;;;;5030969;28;20084;-70
2023/09/29 00:26:01;;;;;;;0.00;0.00;;;16.20;84.40;;;;;;5030956;28;20422;-70
2023/09/29 00:28:27;;;;;;;0.00;0.00;;;16.20;84.50;;;;;;5030880;28;20568;-70
2023/09/29 00:30:53;;;;;;;0.08;0.08;;;16.20;84.40;;;;;;5030435;28;20049;-70
2023/09/29 00:33:20;;;;;;;0.00;0.00;;;16.20;84.60;;;;;;5030939;28;20041;-71
2023/09/29 00:35:45;;;;;;;0.00;0.00;;;16.20;84.50;;;;;;5030815;28;20050;-70
2023/09/29 00:38:11;;;;;;;0.00;0.00;;;16.20;84.40;;;;;;5025376;28;20049;-70
2023/09/29 00:40:37;;;;;;;0.00;0.00;;;16.20;84.50;;;;;;5030428;28;20476;-70
2023/09/29 00:43:03;;;;;;;0.52;0.52;;;16.20;84.40;;;;;;5030108;28;20034;-70
2023/09/29 00:45:29;;;;;;;0.00;0.00;;;16.20;84.30;;;;;;5030599;28;20410;-70
2023/09/29 00:47:59;;;;;;;0.00;0.00;;;16.20;84.20;;;;;;5030475;28;20116;-70
2023/09/29 00:50:29;;;;;;;0.00;0.00;;;16.20;84.30;;;;;;5024912;28;20042;-70
2023/09/29 00:52:58;;;;;;;4.28;1.17;;;16.20;84.30;;;;;;5014515;28;20172;-70
2023/09/29 00:55:27;;;;;;;0.00;0.00;;;16.20;84.30;;;;;;5030165;28;20455;-70
2023/09/29 00:57:55;;;;;;;0.00;0.00;;;16.20;84.30;;;;;;5025233;28;20100;-70
2023/09/29 01:00:25;;;;;;;0.00;0.00;;;16.20;84.30;;;;;;5026920;28;20088;-71
2023/09/29 01:02:51;;;;;;;0.00;0.00;;;16.20;84.40;;;;;;5030614;28;20045;-69
2023/09/29 01:05:17;;;;;;;0.00;0.00;;;16.20;84.40;;;;;;5030882;28;20046;-70
2023/09/29 01:07:44;;;;;;;0.00;0.00;;;16.10;84.40;;;;;;5030023;28;20437;-70
2023/09/29 01:10:15;;;;;;;0.10;0.10;;;16.20;84.40;;;;;;5029857;28;20091;-70
2023/09/29 01:12:41;;;;;;;0.00;0.00;;;16.20;84.70;;;;;;5027641;28;20033;-70
2023/09/29 01:15:12;;;;;;;0.00;0.00;;;16.10;84.60;;;;;;5029908;28;20083;-70
2023/09/29 01:17:42;;;;;;;0.00;0.00;;;16.20;84.50;;;;;;5029803;28;20106;-70
2023/09/29 01:20:19;;;;;;;0.00;0.00;;;16.10;84.40;;;;;;5029663;28;20057;-70
2023/09/29 01:22:48;;;;;;;0.00;0.00;;;16.10;84.50;;;;;;5016551;28;20467;-70
2023/09/29 01:25:15;;;;;;;0.00;0.00;;;16.10;84.60;;;;;;5010050;28;20124;-70
2023/09/29 01:27:41;;;;;;;0.00;0.00;;;16.10;84.50;;;;;;5009819;28;20628;-70
2023/09/29 01:30:07;;;;;;;0.00;0.00;;;16.20;84.80;;;;;;5008659;28;20042;-70
2023/09/29 01:32:34;;;;;;;0.00;0.00;;;16.10;84.60;;;;;;5018739;28;20056;-70
2023/09/29 01:35:00;;;;;;;0.00;0.00;;;16.10;84.70;;;;;;5029338;28;20041;-70
2023/09/29 01:37:26;;;;;;;0.00;0.00;;;16.10;84.60;;;;;;5029344;28;20076;-70
2023/09/29 01:39:52;;;;;;;0.00;0.00;;;16.10;84.90;;;;;;5028158;28;20072;-70
2023/09/29 01:42:18;;;;;;;0.00;0.00;;;16.10;84.90;;;;;;5029449;28;20037;-70
2023/09/29 01:44:44;;;;;;;2.83;0.40;;;16.10;84.90;;;;;;5029153;28;20049;-70
2023/09/29 01:47:09;;;;;;;0.30;0.30;;;16.20;84.80;;;;;;5028075;28;20476;-70
2023/09/29 01:49:36;;;;;;;0.00;0.00;;;16.10;84.90;;;;;;5024217;28;20048;-71
2023/09/29 01:52:02;;;;;;;0.00;0.00;;;16.10;84.80;;;;;;5029361;28;20057;-70
2023/09/29 01:54:28;;;;;;;0.00;0.00;;;16.10;84.80;;;;;;5027416;28;20099;-70
2023/09/29 01:56:54;;;;;;;0.00;0.00;;;16.10;84.70;;;;;;5013453;28;20044;-70
2023/09/29 01:59:19;;;;;;;0.00;0.00;;;16.20;84.70;;;;;;5028807;28;20551;-70
2023/09/29 02:01:45;;;;;;;0.00;0.00;;;16.20;84.70;;;;;;5028750;28;20781;-70
2023/09/29 02:04:11;;;;;;;0.00;0.00;;;16.20;84.90;;;;;;5029141;28;20502;-70
2023/09/29 02:06:37;;;;;;;0.00;0.00;;;16.20;84.70;;;;;;5028140;28;20060;-70
2023/09/29 02:09:07;;;;;;;0.00;0.00;;;16.20;84.80;;;;;;5028786;28;20053;-70
2023/09/29 02:11:33;;;;;;;0.00;0.00;;;16.30;84.60;;;;;;5026928;28;20052;-70
2023/09/29 02:13:59;;;;;;;0.00;0.00;;;16.30;84.60;;;;;;5029017;28;20053;-70
2023/09/29 02:16:24;;;;;;;0.00;0.00;;;16.30;84.70;;;;;;5028414;28;20438;-69
2023/09/29 02:18:50;;;;;;;0.00;0.00;;;16.30;84.70;;;;;;5015864;28;20046;-70
2023/09/29 02:21:23;;;;;;;0.00;0.00;;;16.30;84.60;;;;;;5009079;28;20056;-70
2023/09/29 02:23:48;;;;;;;0.03;0.03;;;16.30;84.50;;;;;;5009593;28;20766;-70
2023/09/29 02:26:15;;;;;;;0.00;0.00;;;16.30;84.60;;;;;;5016464;28;20037;-70
2023/09/29 02:28:40;;;;;;;0.38;0.38;;;16.30;84.90;;;;;;5028685;28;20482;-70
2023/09/29 02:31:13;;;;;;;0.00;0.00;;;16.30;84.90;;;;;;5027444;28;20084;-70
2023/09/29 02:33:39;;;;;;;0.55;0.55;;;16.30;84.70;;;;;;5028991;28;20141;-69
2023/09/29 02:36:06;;;;;;;0.00;0.00;;;16.30;84.80;;;;;;5028647;28;20068;-69
2023/09/29 02:38:31;;;;;;;0.00;0.00;;;16.30;84.80;;;;;;5029026;28;20500;-70
2023/09/29 02:40:59;;;;;;;0.00;0.00;;;16.30;84.80;;;;;;5028686;28;20156;-70
2023/09/29 02:43:27;;;;;;;0.00;0.00;;;16.30;84.70;;;;;;5029104;28;20165;-69
2023/09/29 02:45:53;;;;;;;0.00;0.00;;;16.30;84.60;;;;;;5009447;28;20085;-70
2023/09/29 02:48:19;;;;;;;0.20;0.20;;;16.30;84.70;;;;;;5027665;28;20092;-70
2023/09/29 02:50:45;;;;;;;0.00;0.00;;;16.30;84.60;;;;;;5030102;28;20846;-70
2023/09/29 02:53:10;;;;;;;0.00;0.00;;;16.30;85.00;;;;;;5037624;28;20041;-70
2023/09/29 02:55:37;;;;;;;0.00;0.00;;;16.30;85.00;;;;;;5027935;28;20128;-70
2023/09/29 02:58:03;;;;;;;0.00;0.00;;;16.30;85.10;;;;;;5044010;28;20060;-70
2023/09/29 03:00:29;;;;;;;0.13;0.13;;;16.30;85.00;;;;;;5036831;28;20048;-70
2023/09/29 03:02:54;;;;;;;0.35;0.35;;;16.40;85.00;;;;;;5027593;28;20120;-70
2023/09/29 03:05:21;;;;;;;0.00;0.00;;;16.30;85.10;;;;;;5027801;28;20038;-70
2023/09/29 03:07:47;;;;;;;0.00;0.00;;;16.30;85.00;;;;;;5027742;28;20494;-70
2023/09/29 03:10:14;;;;;;;0.00;0.00;;;16.30;84.90;;;;;;5027589;28;20049;-70
2023/09/29 03:12:40;;;;;;;0.05;0.05;;;16.40;84.80;;;;;;5026724;28;20049;-70
2023/09/29 03:15:08;;;;;;;0.00;0.00;;;16.40;84.60;;;;;;5026926;28;20076;-70
2023/09/29 03:17:34;;;;;;;0.10;0.10;;;16.40;84.70;;;;;;5027630;28;20041;-70
2023/09/29 03:20:00;;;;;;;0.00;0.00;;;16.50;84.60;;;;;;5031188;28;20033;-69
2023/09/29 03:22:25;;;;;;;0.00;0.00;;;16.50;84.40;;;;;;5030835;28;20099;-70
2023/09/29 03:24:51;;;;;;;0.20;0.20;;;16.50;84.50;;;;;;5030872;28;20041;-70
2023/09/29 03:27:17;;;;;;;0.00;0.00;;;16.50;84.40;;;;;;5031126;28;20041;-70
2023/09/29 03:29:43;;;;;;;0.00;0.00;;;16.50;84.50;;;;;;5031132;28;20049;-70
2023/09/29 03:32:09;;;;;;;0.00;0.00;;;16.50;84.40;;;;;;5019217;28;20050;-69
2023/09/29 03:34:35;;;;;;;0.38;0.38;;;16.60;84.40;;;;;;5011412;28;20534;-70
2023/09/29 03:37:00;;;;;;;0.00;0.00;;;16.50;84.50;;;;;;5011092;28;20041;-70
2023/09/29 03:39:26;;;;;;;0.47;0.47;;;16.60;84.30;;;;;;5011631;28;20125;-70
2023/09/29 03:41:51;;;;;;;0.00;0.00;;;16.60;84.30;;;;;;5026518;28;20932;-70
2023/09/29 03:44:17;;;;;;;0.00;0.00;;;16.60;84.40;;;;;;5031166;28;20058;-70
2023/09/29 03:46:42;;;;;;;0.00;0.00;;;16.60;84.30;;;;;;5030879;28;20103;-70
2023/09/29 03:49:11;;;;;;;0.00;0.00;;;16.60;84.20;;;;;;5014804;28;20410;-70
2023/09/29 03:51:38;;;;;;;0.38;0.38;;;16.60;84.30;;;;;;5011191;28;20057;-69
2023/09/29 03:54:04;;;;;;;0.00;0.00;;;16.60;84.20;;;;;;5010837;28;20133;-70
2023/09/29 03:56:29;;;;;;;0.00;0.00;;;16.60;84.40;;;;;;5011139;28;20112;-70
2023/09/29 03:58:55;;;;;;;0.00;0.00;;;16.60;84.50;;;;;;5010852;28;20068;-70
2023/09/29 04:01:22;;;;;;;0.00;0.00;;;16.60;84.40;;;;;;5021227;28;20076;-70
2023/09/29 04:03:48;;;;;;;0.10;0.10;;;16.60;84.40;;;;;;5030488;28;20045;-70
2023/09/29 04:06:14;;;;;;;0.00;0.00;;;16.70;84.50;;;;;;5025919;28;20056;-70
2023/09/29 04:08:40;;;;;;;0.00;0.00;;;16.70;84.50;;;;;;5030274;28;20099;-70
2023/09/29 04:11:07;;;;;;;0.00;0.00;;;16.70;84.50;;;;;;5029842;28;20049;-70
2023/09/29 04:13:33;;;;;;;0.00;0.00;;;16.70;84.40;;;;;;5022906;28;20046;-70
2023/09/29 04:16:06;;;;;;;0.00;0.00;;;16.70;84.40;;;;;;5018365;28;20088;-70
2023/09/29 04:18:31;;;;;;;0.00;0.00;;;16.80;84.20;;;;;;5027236;28;20387;-70
2023/09/29 04:20:58;;;;;;;0.00;0.00;;;16.80;84.30;;;;;;5029910;28;20115;-70
2023/09/29 04:23:24;;;;;;;0.00;0.00;;;16.90;84.40;;;;;;5010276;28;20061;-70
2023/09/29 04:25:50;;;;;;;0.00;0.00;;;16.90;84.30;;;;;;5036471;28;20057;-70
2023/09/29 04:28:15;;;;;;;0.15;0.15;;;16.90;84.40;;;;;;5028311;28;20563;-70
2023/09/29 04:30:41;;;;;;;0.13;0.13;;;16.80;84.50;;;;;;5030606;28;20056;-70
2023/09/29 04:33:07;;;;;;;0.00;0.00;;;16.90;84.60;;;;;;5029585;28;20041;-69
2023/09/29 04:35:34;;;;;;;0.00;0.00;;;16.90;84.60;;;;;;5030825;28;20505;-69
2023/09/29 04:38:00;;;;;;;0.00;0.00;;;16.90;84.80;;;;;;5030140;28;20046;-71
2023/09/29 04:40:25;;;;;;;0.10;0.10;;;16.90;84.60;;;;;;5029843;28;20056;-69
2023/09/29 04:42:51;;;;;;;0.00;0.00;;;16.90;84.60;;;;;;5029503;28;20094;-70
2023/09/29 04:45:17;;;;;;;0.00;0.00;;;16.90;85.00;;;;;;5029991;28;20077;-70
2023/09/29 04:47:43;;;;;;;0.00;0.00;;;16.90;85.00;;;;;;5030510;28;20163;-68
2023/09/29 04:50:09;;;;;;;0.00;0.00;;;16.90;85.00;;;;;;5027073;28;20052;-69
2023/09/29 04:52:35;;;;;;;0.00;0.00;;;16.90;85.30;;;;;;5029806;28;20573;-70
2023/09/29 04:55:00;;;;;;;0.00;0.00;;;16.90;85.20;;;;;;5029617;28;20116;-69
2023/09/29 04:57:26;;;;;;;0.70;0.65;;;16.90;85.30;;;;;;5030427;28;20402;-70
2023/09/29 04:59:52;;;;;;;0.10;0.10;;;16.80;85.20;;;;;;5030011;28;20083;-71
2023/09/29 05:02:17;;;;;;;0.15;0.15;;;16.80;85.30;;;;;;5029339;28;20127;-69
2023/09/29 05:04:43;;;;;;;0.00;0.00;;;16.90;85.60;;;;;;5025538;28;20041;-69
2023/09/29 05:07:09;;;;;;;0.00;0.00;;;16.90;85.50;;;;;;5024267;28;20574;-68
2023/09/29 05:09:35;;;;;;;0.00;0.00;;;16.90;85.50;;;;;;5027669;28;20083;-69
2023/09/29 05:12:00;;;;;;;0.10;0.10;;;16.90;85.60;;;;;;5029130;28;20100;-69
2023/09/29 05:14:26;;;;;;;0.43;0.43;;;16.90;85.40;;;;;;5029085;28;20482;-68
2023/09/29 05:16:53;;;;;;;0.13;0.13;;;16.90;85.80;;;;;;5029277;28;20464;-69
2023/09/29 05:19:19;;;;;;;0.00;0.00;;;16.90;85.60;;;;;;5029409;28;20041;-71
2023/09/29 05:21:45;;;;;;;0.00;0.00;;;16.90;85.40;;;;;;5029387;28;20103;-70
2023/09/29 05:24:10;;;;;;;0.00;0.00;;;17.00;85.40;;;;;;5028859;28;20049;-71
2023/09/29 05:26:36;;;;;;;0.10;0.10;;;16.90;85.60;;;;;;5027213;28;20041;-70
2023/09/29 05:29:01;;;;;;;0.00;0.00;;;16.90;85.50;;;;;;5028483;28;20045;-71
2023/09/29 05:31:27;;;;;;;0.00;0.00;;;16.90;85.50;;;;;;5028942;28;20044;-71
2023/09/29 05:33:54;;;;;;;0.00;0.00;;;16.90;86.10;;;;;;5027380;28;20049;-71
2023/09/29 05:36:22;;;;;;;0.00;0.00;;;16.90;86.30;;;;;;5027156;28;20052;-71
2023/09/29 05:38:48;;;;;;;0.05;0.05;;;16.90;86.60;;;;;;5028258;28;20038;-71
2023/09/29 05:41:13;;;;;;;0.10;0.10;;;16.80;86.60;;;;;;5028697;28;20045;-71
2023/09/29 05:43:39;;;;;;;0.00;0.00;;;16.80;86.70;;;;;;5027086;28;20041;-71
2023/09/29 05:46:05;;;;;;;0.00;0.00;;;16.80;86.70;;;;;;5028662;28;20168;-71
2023/09/29 05:48:30;;;;;;;0.00;0.00;;;16.80;86.80;;;;;;5028234;28;20049;-71
2023/09/29 05:50:56;;;;;;;0.00;0.00;;;16.80;87.30;;;;;;5028243;28;20037;-71
2023/09/29 05:53:21;;;;;;;0.00;0.00;;;16.80;87.30;;;;;;5025573;28;20124;-70
2023/09/29 05:55:47;;;;;;;0.00;0.00;;;16.80;87.30;;;;;;5027255;28;20045;-71
2023/09/29 05:58:12;;;;;;;0.00;0.00;;;16.80;87.40;;;;;;5026807;28;20049;-71
2023/09/29 06:00:39;;;;;;;0.00;0.00;;;16.80;87.60;;;;;;5025916;28;20049;-71
2023/09/29 06:03:05;;;;;;;0.00;0.00;;;16.70;87.70;;;;;;5027512;28;20854;-71
2023/09/29 06:05:31;;;;;;;0.00;0.00;;;16.70;87.50;;;;;;5028073;28;20034;-71
2023/09/29 06:07:57;;;;;;;0.30;0.30;;;16.60;87.50;;;;;;5028811;28;20112;-71
2023/09/29 06:10:23;;;;;;;0.00;0.00;;;16.60;87.40;;;;;;5024734;28;20550;-70
2023/09/29 06:12:48;;;;;;;0.00;0.00;;;16.70;87.90;;;;;;5024427;28;20049;-69
2023/09/29 06:15:14;;;;;;;0.00;0.00;;;16.70;88.10;;;;;;5026473;28;20069;-69
2023/09/29 06:17:40;;;;;;;0.10;0.10;;;16.80;87.70;;;;;;5025371;28;20512;-67
2023/09/29 06:20:07;;;;;;;0.00;0.00;;;17.00;88.90;;;;;;5027321;28;20170;-69
2023/09/29 06:22:34;;;;;;;0.00;0.00;;;17.10;88.40;;;;;;5027306;28;20647;-66
2023/09/29 06:25:00;;;;;;;0.00;0.00;;;17.10;88.20;;;;;;5027610;28;20049;-66
2023/09/29 06:27:27;;;;;;;0.00;0.00;;;17.10;88.30;;;;;;5027172;28;20044;-66
2023/09/29 06:29:53;;;;;;;0.10;0.10;;;17.10;88.20;;;;;;5028496;28;20110;-66
2023/09/29 06:32:19;;;;;;;0.00;0.00;;;17.10;88.00;;;;;;5023840;28;20038;-66
2023/09/29 06:34:44;;;;;;;0.00;0.00;;;17.10;87.80;;;;;;5006728;28;20046;-66
2023/09/29 06:37:10;;;;;;;0.10;0.10;;;17.10;88.10;;;;;;5011742;28;20064;-66
2023/09/29 06:39:36;;;;;;;0.00;0.00;;;17.10;88.00;;;;;;5026539;28;20029;-70
2023/09/29 06:42:03;;;;;;;0.00;0.00;;;17.10;88.00;;;;;;5026389;28;20049;-69
2023/09/29 06:44:29;;;;;;;0.05;0.05;;;17.10;88.00;;;;;;5020959;28;20045;-68
2023/09/29 06:46:55;;;;;;;0.00;0.00;;;17.10;87.90;;;;;;5020221;28;20433;-67
2023/09/29 06:49:20;;;;;;;0.00;0.00;;;17.10;88.40;;;;;;5008303;28;20053;-68
2023/09/29 06:51:46;;;;;;;0.08;0.05;;;17.10;88.30;;;;;;5019704;28;20391;-67
2023/09/29 06:54:12;;;;;;;0.00;0.00;;;17.20;88.70;;;;;;5032479;28;20041;-66
2023/09/29 06:56:37;;;;;;;0.00;0.00;;;17.30;88.60;;;;;;5032213;28;20847;-68
2023/09/29 06:59:03;;;;;;;0.00;0.00;;;17.20;88.30;;;;;;5031731;28;20041;-68
2023/09/29 07:01:29;;;;;;;0.00;0.00;;;17.20;88.20;;;;;;5031526;28;20080;-67
2023/09/29 07:03:54;;;;;;;0.00;0.00;;;17.30;88.20;;;;;;5032442;28;20046;-68
2023/09/29 07:06:23;;;;;;;0.00;0.00;;;17.20;87.90;;;;;;5031970;28;20076;-69
2023/09/29 07:08:49;;;;;;;0.00;0.00;;;17.20;88.00;;;;;;5031157;28;20408;-68
2023/09/29 07:11:15;;;;;;;0.00;0.00;;;17.30;88.10;;;;;;5031392;28;20172;-68
2023/09/29 07:13:40;;;;;;;0.00;0.00;;;17.30;88.20;;;;;;5031865;28;20055;-68
2023/09/29 07:16:06;;;;;;;0.00;0.00;;;17.30;88.40;;;;;;5032269;28;20046;-68
2023/09/29 07:18:31;;;;;;;0.35;0.35;;;17.30;88.20;;;;;;5031873;28;20049;-68
2023/09/29 07:20:57;;;;;;;0.20;0.10;;;17.30;88.20;;;;;;5029804;28;20164;-67
2023/09/29 07:23:23;;;;;;;0.00;0.00;;;17.30;88.30;;;;;;5031171;28;20049;-68
2023/09/29 07:25:52;;;;;;;0.00;0.00;;;17.40;88.30;;;;;;5031736;28;20041;-68
2023/09/29 07:28:22;;;;;;;0.00;0.00;;;17.40;88.10;;;;;;5031239;28;20580;-69
2023/09/29 07:30:48;;;;;;;0.00;0.00;;;17.50;88.30;;;;;;5029609;28;20056;-68
2023/09/29 07:33:14;;;;;;;0.45;0.45;;;17.50;88.40;;;;;;5016410;28;20033;-68
2023/09/29 07:35:41;;;;;;;0.00;0.00;;;17.60;88.40;;;;;;5031040;28;20045;-69
2023/09/29 07:38:07;;;;;;;0.28;0.25;;;17.60;88.40;;;;;;5030786;28;20049;-68
2023/09/29 07:40:33;;;;;;;0.00;0.00;;;17.60;88.10;;;;;;5030660;28;20099;-68
2023/09/29 07:42:59;;;;;;;0.00;0.00;;;17.60;88.50;;;;;;5023273;28;20100;-68
2023/09/29 07:45:25;;;;;;;0.00;0.00;;;17.70;88.20;;;;;;5028064;28;20041;-68
2023/09/29 07:47:51;;;;;;;0.00;0.00;;;17.70;88.10;;;;;;5031120;28;20454;-67
2023/09/29 07:50:17;;;;;;;0.00;0.00;;;17.80;88.10;;;;;;5029752;28;20057;-68
2023/09/29 07:52:43;;;;;;;0.00;0.00;;;17.80;88.00;;;;;;5029275;28;20049;-68
2023/09/29 07:55:09;;;;;;;0.25;0.25;;;17.80;87.80;;;;;;5029641;28;20168;-68
2023/09/29 07:57:36;;;;;;;0.00;0.00;;;17.80;87.90;;;;;;5029559;28;20652;-68
2023/09/29 08:00:04;;;;;;;0.00;0.00;;;17.90;87.80;;;;;;5029726;28;20051;-68
2023/09/29 08:02:31;;;;;;;0.00;0.00;;;18.00;87.70;;;;;;5016096;28;20045;-68
2023/09/29 08:04:57;;;;;;;0.00;0.00;;;18.00;87.80;;;;;;5009930;28;20050;-69
2023/09/29 08:07:23;;;;;;;0.00;0.00;;;18.00;87.90;;;;;;5011339;28;20120;-69
2023/09/29 08:09:48;;;;;;;0.28;0.28;;;18.10;87.90;;;;;;5011202;28;20135;-69
2023/09/29 08:12:14;;;;;;;0.00;0.00;;;18.10;87.90;;;;;;5011234;28;20045;-70
2023/09/29 08:14:40;;;;;;;0.00;0.00;;;18.20;87.80;;;;;;5010843;28;20129;-70
2023/09/29 08:17:06;;;;;;;0.00;0.00;;;18.20;87.80;;;;;;5011018;28;20137;-69
2023/09/29 08:19:33;;;;;;;0.00;0.00;;;18.20;87.60;;;;;;5011185;28;20533;-69
2023/09/29 08:21:59;;;;;;;0.00;0.00;;;18.30;87.80;;;;;;5012001;28;20057;-70
2023/09/29 08:24:25;;;;;;;0.03;0.03;;;18.30;87.60;;;;;;5011216;28;20050;-69
2023/09/29 08:26:50;;;;;;;0.05;0.05;;;18.40;87.70;;;;;;5010918;28;20053;-69
2023/09/29 08:29:16;;;;;;;0.10;0.10;;;18.50;87.60;;;;;;5009880;28;20050;-70
2023/09/29 08:31:43;;;;;;;0.05;0.05;;;18.50;87.50;;;;;;5008323;28;20532;-69
2023/09/29 08:34:09;;;;;;;0.20;0.20;;;18.50;87.50;;;;;;5009450;28;20410;-70
2023/09/29 08:36:35;;;;;;;0.10;0.10;;;18.60;87.50;;;;;;5009120;28;20042;-69
2023/09/29 08:39:01;;;;;;;0.10;0.10;;;18.60;87.40;;;;;;5009520;28;20045;-69
2023/09/29 08:41:27;;;;;;;0.00;0.00;;;18.70;87.40;;;;;;5009273;28;20038;-70
2023/09/29 08:43:53;;;;;;;0.00;0.00;;;18.80;87.30;;;;;;5009689;28;20038;-69
2023/09/29 08:46:20;;;;;;;0.00;0.00;;;18.80;87.00;;;;;;5010490;28;20515;-70
2023/09/29 08:48:47;;;;;;;0.00;0.00;;;18.90;86.90;;;;;;5025990;28;20092;-70
2023/09/29 08:51:14;;;;;;;0.00;0.00;;;19.00;86.80;;;;;;5009846;28;20046;-69
2023/09/29 08:53:44;;;;;;;0.00;0.00;;;19.00;86.80;;;;;;5029894;28;20129;-68
2023/09/29 08:56:16;;;;;;;0.05;0.05;;;19.10;86.70;;;;;;5030023;28;20065;-69
2023/09/29 08:58:42;;;;;;;0.17;0.17;;;19.10;86.70;;;;;;5030447;28;20164;-69
2023/09/29 09:01:08;;;;;;;0.03;0.03;;;19.20;86.40;;;;;;5028939;28;20041;-68
2023/09/29 09:03:34;;;;;;;0.00;0.00;;;19.30;85.90;;;;;;5030583;28;20041;-70
2023/09/29 09:06:00;;;;;;;0.00;0.00;;;19.30;85.70;;;;;;5030317;28;20045;-69
2023/09/29 09:08:26;;;;;;;0.00;0.00;;;19.40;85.60;;;;;;5029972;28;20045;-69
2023/09/29 09:10:59;;;;;;;0.00;0.00;;;19.40;85.20;;;;;;5030252;28;20057;-69
2023/09/29 09:13:27;;;;;;;0.08;0.08;;;19.50;85.50;;;;;;5030045;28;20045;-67
2023/09/29 09:16:00;;;;;;;0.15;0.15;;;19.50;85.80;;;;;;5028904;28;20099;-68
2023/09/29 09:18:29;;;;;;;1.75;0.35;;;19.50;85.50;;;;;;5029699;28;20045;-68
2023/09/29 09:20:55;;;;;;;0.00;0.00;;;19.60;85.30;;;;;;5029966;28;20140;-68
2023/09/29 09:23:21;;;;;;;0.00;0.00;;;19.60;85.20;;;;;;5012986;28;20038;-68
2023/09/29 09:25:47;;;;;;;0.00;0.00;;;19.70;85.10;;;;;;5009968;28;20045;-67
2023/09/29 09:28:19;;;;;;;0.10;0.10;;;19.70;85.30;;;;;;5010019;28;20495;-68
2023/09/29 09:30:46;;;;;;;0.00;0.00;;;19.70;85.40;;;;;;5010096;28;20121;-68
2023/09/29 09:33:23;;;;;;;0.10;0.10;;;19.80;85.30;;;;;;5009855;28;20038;-68
2023/09/29 09:36:02;;;;;;;0.00;0.00;;;19.80;85.30;;;;;;5010007;28;20050;-68
2023/09/29 09:38:34;;;;;;;0.00;0.00;;;19.80;85.20;;;;;;5009673;28;20049;-69
2023/09/29 09:41:04;;;;;;;0.00;0.00;;;19.80;85.20;;;;;;5008588;28;20034;-68
2023/09/29 09:43:29;;;;;;;0.00;0.00;;;19.80;85.40;;;;;;5010034;28;20046;-68
2023/09/29 09:46:11;;;;;;;0.00;0.00;;;19.80;85.40;;;;;;5009874;28;20038;-68
2023/09/29 09:49:10;;;;;;;0.03;0.03;;;19.80;85.30;;;;;;5025087;28;20491;-68
2023/09/29 09:51:40;;;;;;;0.00;0.00;;;19.70;85.40;;;;;;4981120;28;20155;-68
2023/09/29 09:54:08;;;;;;;0.28;0.28;;;19.70;85.50;;;;;;5009366;28;20153;-68
2023/09/29 09:56:55;;;;;;;0.00;0.00;;;19.80;85.40;;;;;;5024731;28;20045;-68
2023/09/29 09:59:22;;;;;;;0.00;0.00;;;19.80;85.60;;;;;;5009805;28;20037;-68
2023/09/29 10:01:50;;;;;;;0.00;0.00;;;19.80;86.20;;;;;;5010734;28;20056;-68
2023/09/29 10:04:17;;;;;;;0.10;0.10;;;19.90;86.20;;;;;;5029105;28;20187;-68
2023/09/29 10:06:45;;;;;;;0.00;0.00;;;20.10;86.00;;;;;;5029248;28;20398;-68
2023/09/29 10:09:11;;;;;;;0.40;0.40;;;20.10;85.80;;;;;;5029173;28;20092;-69
2023/09/29 10:11:42;;;;;;;0.00;0.00;;;20.10;85.80;;;;;;5029259;28;20041;-69
2023/09/29 10:14:08;;;;;;;0.00;0.00;;;20.10;85.40;;;;;;5028962;28;20060;-68
2023/09/29 10:16:44;;;;;;;0.00;0.00;;;20.10;85.50;;;;;;5029457;28;20034;-68
2023/09/29 10:19:16;;;;;;;0.00;0.00;;;20.20;85.60;;;;;;5027935;28;20073;-69
2023/09/29 10:21:48;;;;;;;0.13;0.13;;;20.20;85.30;;;;;;5027755;28;20057;-68
2023/09/29 10:24:27;;;;;;;0.00;0.00;;;20.20;85.30;;;;;;5028942;28;20053;-69
2023/09/29 10:26:52;;;;;;;0.00;0.00;;;20.30;85.30;;;;;;5030071;28;20045;-68
2023/09/29 10:29:37;;;;;;;0.30;0.20;;;20.20;85.40;;;;;;5033153;28;20041;-68
2023/09/29 10:32:20;;;;;;;0.00;0.00;;;20.20;85.50;;;;;;5030873;28;20041;-69
2023/09/29 10:34:48;;;;;;;0.60;0.52;;;20.20;85.40;;;;;;5031979;28;20088;-68
2023/09/29 10:37:15;;;;;;;0.00;0.00;;;20.10;85.80;;;;;;5048364;28;20046;-68
2023/09/29 10:39:44;;;;;;;0.00;0.00;;;20.10;85.80;;;;;;5031840;28;20053;-68
2023/09/29 10:42:13;;;;;;;0.45;0.45;;;20.10;85.80;;;;;;5047866;28;20067;-68
2023/09/29 10:44:52;;;;;;;0.00;0.00;;;20.20;85.90;;;;;;5048408;28;20046;-67
2023/09/29 10:47:31;;;;;;;0.00;0.00;;;20.10;86.00;;;;;;5047609;28;20132;-67
2023/09/29 10:50:04;;;;;;;0.08;0.08;;;20.10;86.20;;;;;;5027716;28;20045;-67
2023/09/29 10:52:30;;;;;;;0.00;0.00;;;20.20;86.00;;;;;;5024216;28;20037;-67
2023/09/29 10:54:59;;;;;;;0.00;0.00;;;20.10;86.00;;;;;;5032182;28;20091;-67
2023/09/29 10:57:31;;;;;;;0.00;0.00;;;20.20;86.00;;;;;;5032027;28;20041;-69
2023/09/29 11:00:01;;;;;;;0.00;0.00;;;20.30;86.00;;;;;;5032619;28;20049;-69
2023/09/29 11:02:30;;;;;;;0.00;0.00;;;20.40;85.70;;;;;;5030809;28;20042;-69
2023/09/29 11:04:59;;;;;;;0.00;0.00;;;20.30;85.80;;;;;;5047470;28;20056;-68
2023/09/29 11:07:29;;;;;;;0.00;0.00;;;20.30;85.70;;;;;;5032253;28;20053;-69
2023/09/29 11:09:59;;;;;;;0.00;0.00;;;20.20;85.80;;;;;;5031094;28;20507;-68
2023/09/29 11:12:27;;;;;;;3.75;0.45;;;20.30;86.00;;;;;;5035831;28;20041;-69
2023/09/29 11:15:06;;;;;;;0.25;0.25;;;20.30;86.30;;;;;;5051211;28;20390;-69
2023/09/29 11:17:48;;;;;;;0.00;0.00;;;20.30;86.30;;;;;;5034337;28;20464;-69
2023/09/29 11:20:37;;;;;;;0.00;0.00;;;20.40;86.30;;;;;;5032398;28;20091;-69
2023/09/29 11:23:11;;;;;;;12.25;0.75;;;20.40;86.20;;;;;;5031119;28;20053;-69
2023/09/29 11:26:04;;;;;;;0.15;0.15;;;20.40;86.20;;;;;;5011641;28;20077;-69
2023/09/29 11:28:30;;;;;;;0.10;0.10;;;20.40;86.30;;;;;;5028840;28;20049;-68
2023/09/29 11:30:56;;;;;;;0.00;0.00;;;20.30;85.30;;;;;;5050759;28;20052;-69
2023/09/29 11:33:22;;;;;;;0.00;0.00;;;19.80;84.60;;;;;;5024589;28;20042;-68
2023/09/29 11:35:48;;;;;;;0.00;0.00;;;19.60;84.90;;;;;;5034750;28;20049;-69
2023/09/29 11:38:20;;;;;;;0.00;0.00;;;19.30;85.80;;;;;;5030308;28;20080;-69
2023/09/29 11:40:50;;;;;;;0.00;0.00;;;19.00;86.70;;;;;;5031584;28;20097;-68
2023/09/29 11:43:16;;;;;;;0.00;0.00;;;18.60;88.20;;;;;;5030727;28;20613;-69
2023/09/29 11:45:42;;;;;;;0.10;0.10;;;18.40;89.30;;;;;;5030565;28;20042;-69
2023/09/29 11:48:08;;;;;;;0.00;0.00;;;18.30;89.70;;;;;;5029411;28;20133;-69
2023/09/29 11:50:34;;;;;;;0.00;0.00;;;18.10;90.30;;;;;;5030684;28;20041;-69
2023/09/29 11:53:03;;;;;;;0.00;0.00;;;18.00;90.50;;;;;;5031158;28;20041;-69
2023/09/29 11:55:30;;;;;;;0.00;0.00;;;18.00;90.80;;;;;;5030878;28;20512;-69
2023/09/29 11:57:55;;;;;;;0.08;0.08;;;17.80;91.10;;;;;;5031384;28;20048;-68
2023/09/29 12:00:21;;;;;;;0.00;0.00;;;17.90;91.50;;;;;;5031578;28;20124;-69
2023/09/29 12:02:47;;;;;;;0.00;0.00;;;17.90;91.40;;;;;;5020637;28;20088;-68
2023/09/29 12:05:12;;;;;;;0.00;0.00;;;17.90;91.30;;;;;;5024058;28;20409;-68
2023/09/29 12:07:38;;;;;;;0.00;0.00;;;17.70;90.60;;;;;;5031128;28;20049;-68
2023/09/29 12:10:04;;;;;;;0.00;0.00;;;17.50;90.40;;;;;;5031010;28;20051;-69
2023/09/29 12:12:32;;;;;;;0.00;0.00;;;17.50;90.30;;;;;;5030775;28;20057;-67
2023/09/29 12:14:58;;;;;;;0.10;0.10;;;17.40;90.40;;;;;;5012779;28;20103;-67
2023/09/29 12:17:25;;;;;;;0.00;0.00;;;17.30;90.80;;;;;;5030802;28;20037;-68
2023/09/29 12:19:51;;;;;;;0.00;0.00;;;17.30;90.90;;;;;;5030184;28;20124;-67
2023/09/29 12:22:17;;;;;;;0.32;0.32;;;17.30;91.40;;;;;;5030245;28;20140;-68
2023/09/29 12:24:43;;;;;;;0.00;0.00;;;17.30;91.50;;;;;;5030142;28;20053;-68
2023/09/29 12:27:08;;;;;;;0.25;0.25;;;17.20;91.70;;;;;;5030167;28;20045;-67
2023/09/29 12:29:34;;;;;;;0.00;0.00;;;17.30;91.70;;;;;;5030476;28;20052;-68
2023/09/29 12:32:00;;;;;;;0.00;0.00;;;17.10;91.90;;;;;;5028070;28;20099;-67
2023/09/29 12:34:28;;;;;;;0.00;0.00;;;17.10;91.90;;;;;;5030658;28;20041;-68
2023/09/29 12:36:55;;;;;;;0.00;0.00;;;17.20;91.80;;;;;;5030469;28;20052;-68
2023/09/29 12:39:21;;;;;;;0.00;0.00;;;17.20;91.40;;;;;;5045236;28;20046;-68
2023/09/29 12:41:47;;;;;;;0.00;0.00;;;17.20;91.30;;;;;;5030423;28;20048;-67
2023/09/29 12:44:13;;;;;;;0.00;0.00;;;17.20;91.40;;;;;;5030184;28;20528;-67
2023/09/29 12:46:38;;;;;;;0.00;0.00;;;17.20;91.00;;;;;;5030251;28;20049;-68
2023/09/29 12:49:04;;;;;;;0.00;0.00;;;17.10;91.10;;;;;;5030207;28;20056;-68